Chek Lap Kok International Airport

VHHH | HKG

Hong Kong , Hong Kong

Saturday, September 21st, 2019 | 19:40

Weather

VHHH 211130Z 33016KT CAVOK 30/18 Q1008 NOSIG

Charts

No Charts Available

Gates

207 Available

Runways

2 Available

Events

No events for this airport


New event